Time;durP1;ratioP1;P1;durP2;ratioP2;P2;SDS_P1;SDS_P2;PMS_P1;PMS_P2;Temp;Humidity;BMP_temperature;BMP_pressure;BME280_temperature;BME280_humidity;BME280_pressure;Samples;Min_cycle;Max_cycle;Signal;HPM_P1;HPM_P2
2023/03/29 00:02:12;;;;;;;2.90;2.70;;;9.30;48.90;;;;;;20565;6824;307516;-77
2023/03/29 00:04:38;;;;;;;2.30;2.17;;;9.60;48.80;;;;;;20762;6824;117536;-77
2023/03/29 00:07:03;;;;;;;2.55;2.35;;;9.50;48.40;;;;;;20561;6824;336464;-77
2023/03/29 00:09:29;;;;;;;2.43;2.33;;;9.50;48.50;;;;;;20801;6824;67975;-77
2023/03/29 00:11:55;;;;;;;2.58;2.40;;;9.30;48.30;;;;;;20561;6824;309886;-78
2023/03/29 00:14:22;;;;;;;2.40;2.30;;;9.30;48.30;;;;;;20776;6824;117417;-80
2023/03/29 00:16:47;;;;;;;2.70;2.50;;;9.20;48.30;;;;;;20627;6824;117490;-77
2023/03/29 00:19:13;;;;;;;3.07;2.87;;;9.00;48.70;;;;;;20779;6824;118687;-77
2023/03/29 00:21:38;;;;;;;3.10;2.90;;;8.80;49.00;;;;;;20577;6824;294789;-77
2023/03/29 00:24:04;;;;;;;3.50;3.30;;;8.90;49.90;;;;;;20785;6824;121239;-77
2023/03/29 00:26:31;;;;;;;3.37;3.10;;;8.90;49.60;;;;;;20553;6824;307065;-77
2023/03/29 00:28:57;;;;;;;2.83;2.63;;;9.10;50.00;;;;;;20571;6824;311524;-78
2023/03/29 00:31:22;;;;;;;3.03;2.90;;;9.40;49.80;;;;;;20564;6822;307453;-82
2023/03/29 00:33:48;;;;;;;3.28;3.08;;;9.60;49.50;;;;;;20572;6822;322854;-78
2023/03/29 00:36:15;;;;;;;3.33;3.13;;;10.00;47.40;;;;;;20574;6823;282081;-77
2023/03/29 00:38:42;;;;;;;2.20;2.10;;;10.00;47.40;;;;;;20754;6823;119166;-77
2023/03/29 00:41:08;;;;;;;2.47;2.37;;;9.80;48.30;;;;;;20780;6823;117501;-78
2023/03/29 00:43:54;;;;;;;2.27;2.17;;;9.50;48.80;;;;;;20777;6823;118031;-77
2023/03/29 00:46:19;;;;;;;2.30;2.10;;;9.30;49.20;;;;;;20774;6823;118109;-78
2023/03/29 00:48:45;;;;;;;2.62;2.42;;;9.10;49.70;;;;;;20541;6823;336211;-77
2023/03/29 00:51:11;;;;;;;2.53;2.43;;;9.20;50.00;;;;;;20779;6823;118179;-77
2023/03/29 00:53:47;;;;;;;2.43;2.23;;;9.30;49.80;;;;;;20569;6823;305327;-77
2023/03/29 00:56:12;;;;;;;2.40;2.30;;;9.50;49.10;;;;;;20573;6823;278881;-77
2023/03/29 00:58:37;;;;;;;2.60;2.50;;;9.80;48.70;;;;;;20547;6823;307022;-77
2023/03/29 01:01:03;;;;;;;2.53;2.43;;;10.10;47.30;;;;;;20763;6823;117065;-76
2023/03/29 01:03:31;;;;;;;3.08;2.72;;;9.90;48.20;;;;;;20553;6823;307762;-77
2023/03/29 01:06:04;;;;;;;2.85;2.65;;;10.00;47.70;;;;;;20746;6823;117964;-77
2023/03/29 01:08:40;;;;;;;2.85;2.65;;;9.90;48.80;;;;;;20545;6823;277939;-78
2023/03/29 01:11:06;;;;;;;2.83;2.70;;;9.90;49.20;;;;;;20375;6824;277215;-78
2023/03/29 01:13:38;;;;;;;2.70;2.50;;;10.30;46.70;;;;;;20553;6824;318004;-78
2023/03/29 01:16:06;;;;;;;2.67;2.47;;;10.30;46.70;;;;;;20569;6824;278063;-78
2023/03/29 01:18:32;;;;;;;2.53;2.33;;;10.50;46.60;;;;;;20553;6824;330797;-78
2023/03/29 01:21:22;;;;;;;2.65;2.50;;;10.60;46.30;;;;;;20565;6824;336861;-78
2023/03/29 01:23:52;;;;;;;2.27;2.17;;;10.70;45.80;;;;;;20755;6824;117002;-78
2023/03/29 01:26:41;;;;;;;2.77;2.60;;;10.40;46.10;;;;;;20539;6824;320359;-78
2023/03/29 01:29:23;;;;;;;2.20;2.10;;;10.30;46.70;;;;;;20779;6824;117235;-78
2023/03/29 01:31:51;;;;;;;4.20;3.80;;;10.10;47.10;;;;;;20762;6824;117552;-78
2023/03/29 01:34:24;;;;;;;2.37;2.07;;;9.80;48.50;;;;;;20765;6824;121076;-78
2023/03/29 01:36:49;;;;;;;3.37;3.07;;;9.60;49.00;;;;;;20769;6824;117092;-78
2023/03/29 01:39:15;;;;;;;2.92;2.72;;;9.40;49.10;;;;;;20382;6824;340321;-78
2023/03/29 01:41:58;;;;;;;2.60;2.40;;;9.60;49.50;;;;;;20782;6824;119296;-78
2023/03/29 01:44:30;;;;;;;4.33;3.83;;;9.60;49.20;;;;;;20750;6822;119189;-78
2023/03/29 01:47:10;;;;;;;3.05;2.75;;;9.60;49.30;;;;;;20546;6823;338540;-78
2023/03/29 01:49:35;;;;;;;2.50;2.30;;;9.60;49.30;;;;;;20767;6823;116935;-77
2023/03/29 01:52:10;;;;;;;2.83;2.63;;;9.60;49.20;;;;;;20559;6823;278025;-78
2023/03/29 01:54:36;;;;;;;3.10;2.90;;;9.80;49.40;;;;;;20519;6823;336906;-77
2023/03/29 01:57:03;;;;;;;3.97;3.17;;;10.10;47.60;;;;;;20742;6823;118150;-77
2023/03/29 01:59:27;;;;;;;3.00;2.80;;;10.00;47.50;;;;;;20561;6823;340324;-77
2023/03/29 02:01:53;;;;;;;2.40;2.30;;;10.10;47.10;;;;;;20776;6823;117708;-77
2023/03/29 02:04:21;;;;;;;3.10;2.90;;;10.00;47.30;;;;;;20724;6823;117119;-77
2023/03/29 02:06:49;;;;;;;2.57;2.23;;;9.80;48.60;;;;;;20766;6823;118286;-77
2023/03/29 02:09:15;;;;;;;2.80;2.60;;;9.60;49.00;;;;;;20527;6823;344447;-78
2023/03/29 02:11:40;;;;;;;2.60;2.30;;;9.70;48.80;;;;;;20765;6823;119124;-77
2023/03/29 02:14:06;;;;;;;2.87;2.60;;;9.70;48.80;;;;;;20567;6823;307068;-77
2023/03/29 02:16:35;;;;;;;2.87;2.70;;;9.90;49.00;;;;;;20766;6823;119833;-77
2023/03/29 02:19:01;;;;;;;2.58;2.47;;;9.80;48.80;;;;;;20568;6823;307396;-78
2023/03/29 02:21:27;;;;;;;3.17;2.87;;;10.00;47.60;;;;;;20573;6824;282506;-78
2023/03/29 02:23:53;;;;;;;3.00;2.80;;;10.40;46.60;;;;;;20552;6824;276873;-78
2023/03/29 02:26:18;;;;;;;2.87;2.67;;;10.40;46.60;;;;;;20766;6824;119976;-77
2023/03/29 02:28:44;;;;;;;2.33;2.22;;;10.30;47.40;;;;;;20774;6824;118338;-77
2023/03/29 02:31:20;;;;;;;2.60;2.23;;;10.00;47.20;;;;;;20791;6824;117112;-77
2023/03/29 02:33:51;;;;;;;2.60;2.40;;;9.70;48.50;;;;;;20776;6824;117630;-77
2023/03/29 02:36:33;;;;;;;4.40;2.60;;;9.50;49.00;;;;;;20577;6824;311744;-77
2023/03/29 02:38:58;;;;;;;2.53;2.42;;;9.70;48.30;;;;;;20569;6824;289907;-78
2023/03/29 02:41:25;;;;;;;2.93;2.73;;;10.10;46.50;;;;;;20776;6824;120982;-77
2023/03/29 02:43:52;;;;;;;2.80;2.63;;;10.10;46.50;;;;;;20789;6824;122058;-76
2023/03/29 02:46:18;;;;;;;2.63;2.43;;;9.80;47.90;;;;;;20780;6824;117099;-80
2023/03/29 02:48:43;;;;;;;2.20;1.90;;;9.60;48.40;;;;;;20762;6824;117398;-78
2023/03/29 02:51:09;;;;;;;2.40;2.30;;;9.40;48.70;;;;;;20780;6824;116954;-77
2023/03/29 02:53:35;;;;;;;2.53;2.33;;;9.30;48.90;;;;;;20554;6824;336467;-77
2023/03/29 02:56:01;;;;;;;2.97;2.50;;;9.50;48.30;;;;;;20560;6822;278003;-78
2023/03/29 02:58:27;;;;;;;2.30;2.20;;;9.90;47.50;;;;;;20566;6823;277160;-77
2023/03/29 03:00:51;;;;;;;2.40;2.30;;;10.20;45.80;;;;;;20568;6823;307447;-77
2023/03/29 03:03:17;;;;;;;2.27;2.07;;;10.50;45.40;;;;;;20570;6823;307058;-77
2023/03/29 03:05:42;;;;;;;2.40;2.20;;;10.70;44.50;;;;;;20575;6823;281536;-77
2023/03/29 03:08:08;;;;;;;2.70;2.50;;;10.90;44.10;;;;;;20575;6823;279146;-77
2023/03/29 03:10:34;;;;;;;2.00;1.90;;;10.80;44.10;;;;;;20767;6823;117516;-77
2023/03/29 03:13:03;;;;;;;1.87;1.77;;;10.70;44.00;;;;;;20787;6823;118389;-76
2023/03/29 03:15:30;;;;;;;2.10;1.90;;;10.10;45.40;;;;;;20787;6823;118013;-77
2023/03/29 03:17:54;;;;;;;1.60;1.50;;;10.10;45.40;;;;;;20787;6823;117038;-77
2023/03/29 03:20:21;;;;;;;2.10;2.00;;;9.90;46.90;;;;;;20571;6823;330222;-77
2023/03/29 03:22:48;;;;;;;2.37;1.90;;;10.00;45.60;;;;;;20587;6823;277541;-77
2023/03/29 03:25:18;;;;;;;1.87;1.77;;;10.30;44.80;;;;;;20587;6823;278868;-77
2023/03/29 03:27:42;;;;;;;1.90;1.80;;;10.60;43.60;;;;;;20556;6823;336424;-76
2023/03/29 03:30:08;;;;;;;1.33;1.23;;;10.90;42.90;;;;;;20790;6823;117390;-77
2023/03/29 03:32:33;;;;;;;3.00;1.60;;;10.70;42.70;;;;;;20552;6823;310126;-77
2023/03/29 03:34:59;;;;;;;2.90;1.70;;;10.70;42.80;;;;;;20571;6824;313684;-74
2023/03/29 03:37:26;;;;;;;1.80;1.70;;;10.90;42.70;;;;;;20577;6824;306169;-72
2023/03/29 03:39:52;;;;;;;1.83;1.52;;;11.30;41.90;;;;;;20572;6824;340513;-76
2023/03/29 03:42:18;;;;;;;1.47;1.37;;;11.20;41.60;;;;;;20771;6824;117370;-76
2023/03/29 03:44:43;;;;;;;1.53;1.47;;;11.10;42.30;;;;;;20770;6824;118392;-76
2023/03/29 03:47:09;;;;;;;1.40;1.30;;;10.70;42.50;;;;;;20583;6824;318172;-76
2023/03/29 03:49:36;;;;;;;1.60;1.50;;;10.70;42.50;;;;;;20793;6824;116035;-76
2023/03/29 03:52:02;;;;;;;1.87;1.50;;;10.70;43.00;;;;;;20581;6824;291975;-76
2023/03/29 03:54:27;;;;;;;1.80;1.70;;;10.70;41.90;;;;;;20556;6824;306549;-77
2023/03/29 03:56:53;;;;;;;2.03;1.27;;;11.00;41.90;;;;;;20795;6824;118758;-77
2023/03/29 03:59:19;;;;;;;1.73;1.20;;;10.60;42.80;;;;;;20798;6824;117155;-77
2023/03/29 04:01:45;;;;;;;1.60;1.50;;;10.60;42.90;;;;;;20577;6824;307876;-76
2023/03/29 04:04:11;;;;;;;1.48;1.37;;;10.60;42.60;;;;;;20792;6824;118264;-75
2023/03/29 04:06:37;;;;;;;1.57;1.40;;;10.60;42.60;;;;;;20773;6822;123836;-76
2023/03/29 04:09:03;;;;;;;1.07;1.07;;;10.40;43.10;;;;;;20790;6823;119054;-73
2023/03/29 04:11:29;;;;;;;2.47;1.60;;;10.30;43.60;;;;;;20788;6823;117404;-73
2023/03/29 04:13:56;;;;;;;2.70;1.20;;;10.10;43.90;;;;;;20574;6823;332216;-73
2023/03/29 04:16:20;;;;;;;1.70;0.90;;;10.30;43.30;;;;;;20796;6823;117979;-73
2023/03/29 04:18:47;;;;;;;2.30;1.20;;;10.40;43.40;;;;;;20568;6823;306748;-74
2023/03/29 04:21:12;;;;;;;1.67;1.57;;;10.60;42.40;;;;;;20578;6823;323800;-75
2023/03/29 04:23:38;;;;;;;2.57;2.37;;;10.90;41.60;;;;;;20786;6823;117039;-74
2023/03/29 04:26:05;;;;;;;2.50;2.33;;;10.90;42.00;;;;;;20572;6823;310260;-76
2023/03/29 04:28:31;;;;;;;1.40;1.30;;;11.00;42.00;;;;;;20766;6823;117504;-79
2023/03/29 04:30:56;;;;;;;1.08;1.08;;;10.90;42.30;;;;;;20790;6823;117174;-75
2023/03/29 04:33:22;;;;;;;1.50;1.17;;;10.80;41.60;;;;;;20576;6823;313303;-74
2023/03/29 04:35:48;;;;;;;2.33;0.97;;;10.80;41.60;;;;;;20793;6823;117051;-75
2023/03/29 04:38:15;;;;;;;2.37;2.17;;;10.60;42.50;;;;;;20776;6823;116981;-73
2023/03/29 04:40:40;;;;;;;5.03;3.83;;;10.60;42.50;;;;;;20551;6823;306633;-74
2023/03/29 04:43:06;;;;;;;3.40;2.13;;;10.80;42.20;;;;;;20783;6823;121200;-73
2023/03/29 04:45:32;;;;;;;1.97;1.80;;;10.80;42.20;;;;;;20569;6824;307912;-73
2023/03/29 04:47:59;;;;;;;1.20;1.10;;;10.90;41.10;;;;;;20571;6824;282747;-76
2023/03/29 04:50:24;;;;;;;1.47;1.30;;;11.20;40.60;;;;;;20555;6824;278262;-79
2023/03/29 04:52:50;;;;;;;1.45;1.15;;;11.40;40.20;;;;;;20565;6824;307435;-76
2023/03/29 04:55:16;;;;;;;1.02;1.02;;;11.60;39.80;;;;;;20571;6824;336946;-76
2023/03/29 04:57:43;;;;;;;2.73;1.13;;;11.80;39.60;;;;;;20785;6824;118592;-75
2023/03/29 05:00:13;;;;;;;1.43;1.00;;;11.50;40.10;;;;;;20776;6824;117679;-75
2023/03/29 05:02:33;;;;;;;1.30;0.90;;;11.20;40.90;;;;;;20749;6824;117515;-80
2023/03/29 05:05:00;;;;;;;2.50;1.30;;;11.00;40.80;;;;;;20577;6824;336373;-76
2023/03/29 05:07:25;;;;;;;1.47;1.37;;;11.00;40.40;;;;;;20574;6824;315473;-78
2023/03/29 05:09:51;;;;;;;1.57;1.20;;;11.30;40.10;;;;;;20589;6824;311772;-78
2023/03/29 05:12:17;;;;;;;1.30;1.20;;;11.60;40.50;;;;;;20563;6824;278039;-75
2023/03/29 05:14:42;;;;;;;1.43;1.33;;;11.80;40.60;;;;;;20556;6824;279883;-77
2023/03/29 05:17:09;;;;;;;1.70;1.60;;;11.90;39.50;;;;;;20555;6824;309430;-77
2023/03/29 05:19:35;;;;;;;1.33;1.27;;;12.00;39.80;;;;;;20738;6821;116964;-76
2023/03/29 05:22:00;;;;;;;1.10;1.10;;;11.70;40.40;;;;;;20735;6823;120744;-76
2023/03/29 05:24:26;;;;;;;1.55;1.25;;;11.40;41.20;;;;;;20509;6823;310588;-76
2023/03/29 05:26:51;;;;;;;1.25;1.10;;;11.40;40.70;;;;;;20531;6823;277553;-76
2023/03/29 05:29:17;;;;;;;1.47;1.37;;;11.60;39.50;;;;;;20751;6823;121202;-78
2023/03/29 05:31:42;;;;;;;1.90;1.80;;;11.50;40.50;;;;;;20523;6823;328644;-76
2023/03/29 05:34:09;;;;;;;1.20;1.10;;;11.40;40.90;;;;;;20752;6823;121016;-76
2023/03/29 05:36:34;;;;;;;1.20;1.20;;;11.40;40.80;;;;;;20749;6823;126940;-76
2023/03/29 05:39:00;;;;;;;1.67;1.10;;;11.20;41.30;;;;;;20560;6823;309435;-76
2023/03/29 05:41:25;;;;;;;1.55;1.20;;;11.30;40.60;;;;;;20580;6823;279322;-77
2023/03/29 05:43:53;;;;;;;1.23;1.20;;;11.90;39.40;;;;;;20573;6823;277126;-76
2023/03/29 05:46:19;;;;;;;1.20;1.20;;;11.80;39.20;;;;;;20572;6823;311215;-77
2023/03/29 05:48:44;;;;;;;2.30;1.17;;;12.10;39.70;;;;;;20769;6823;118154;-75
2023/03/29 05:51:10;;;;;;;1.50;1.40;;;11.90;40.30;;;;;;20811;6823;117188;-75
2023/03/29 05:53:36;;;;;;;2.00;1.20;;;11.70;40.70;;;;;;20576;6823;307890;-75
2023/03/29 05:56:23;;;;;;;2.90;1.40;;;11.70;40.60;;;;;;20593;6824;277511;-75
2023/03/29 05:59:00;;;;;;;1.30;1.03;;;11.90;40.30;;;;;;21028;6696;117364;-78
2023/03/29 06:01:35;;;;;;;1.10;1.10;;;11.80;41.10;;;;;;20979;6710;117676;-77
2023/03/29 06:04:15;;;;;;;1.13;1.13;;;11.50;41.50;;;;;;20944;6710;117018;-76
2023/03/29 06:06:45;;;;;;;1.42;1.33;;;11.30;41.80;;;;;;20732;6711;275592;-75
2023/03/29 06:09:22;;;;;;;2.67;1.30;;;11.50;41.20;;;;;;20762;6710;279533;-77
2023/03/29 06:12:00;;;;;;;1.27;1.20;;;11.80;40.70;;;;;;20985;6710;117532;-77
2023/03/29 06:14:36;;;;;;;1.42;1.33;;;11.80;41.20;;;;;;20682;6709;277398;-79
2023/03/29 06:17:10;;;;;;;1.33;1.23;;;11.90;42.10;;;;;;20758;6711;304758;-77
2023/03/29 06:19:48;;;;;;;2.20;1.43;;;12.20;41.50;;;;;;20988;6710;117942;-75
2023/03/29 06:22:21;;;;;;;1.52;1.42;;;12.10;41.70;;;;;;20767;6710;276717;-75
2023/03/29 06:24:57;;;;;;;1.30;1.20;;;12.20;40.20;;;;;;20889;6709;117187;-75
2023/03/29 06:27:35;;;;;;;6.87;1.87;;;12.10;40.90;;;;;;21003;6701;118714;-76
2023/03/29 06:30:11;;;;;;;1.13;1.13;;;11.90;41.60;;;;;;20935;6722;116837;-75
2023/03/29 06:32:48;;;;;;;1.73;1.62;;;11.70;42.00;;;;;;20772;6700;275443;-75
2023/03/29 06:35:22;;;;;;;2.00;1.80;;;11.90;41.60;;;;;;20811;6715;117469;-76
2023/03/29 06:37:57;;;;;;;1.77;1.67;;;12.00;42.10;;;;;;20931;6711;120694;-76
2023/03/29 06:40:33;;;;;;;1.70;1.60;;;11.90;42.50;;;;;;20959;6710;116810;-77
2023/03/29 06:43:09;;;;;;;1.40;1.30;;;11.80;42.80;;;;;;20928;6722;117058;-75
2023/03/29 06:45:45;;;;;;;3.10;2.30;;;11.90;42.60;;;;;;20554;6735;279321;-74
2023/03/29 06:48:21;;;;;;;1.67;1.57;;;11.90;42.10;;;;;;20951;6705;118447;-75
2023/03/29 06:50:57;;;;;;;1.70;1.60;;;12.00;42.40;;;;;;20916;6735;118860;-75
2023/03/29 06:53:34;;;;;;;2.43;1.40;;;11.70;43.80;;;;;;20950;6733;117370;-76
2023/03/29 06:56:10;;;;;;;2.80;1.80;;;11.70;43.00;;;;;;20513;6784;313565;-78
2023/03/29 06:58:45;;;;;;;2.57;1.60;;;11.90;42.10;;;;;;20761;6720;275210;-74
2023/03/29 07:01:20;;;;;;;1.57;1.47;;;12.30;40.60;;;;;;20867;6740;117850;-73
2023/03/29 07:04:06;;;;;;;2.03;1.70;;;12.30;41.10;;;;;;20785;6696;279786;-73
2023/03/29 07:06:36;;;;;;;20.35;18.35;;;12.70;40.50;;;;;;20694;6711;334498;-75
2023/03/29 07:09:11;;;;;;;22.93;20.83;;;12.70;40.50;;;;;;20700;6774;304547;-74
2023/03/29 07:11:49;;;;;;;6.60;6.00;;;13.00;39.40;;;;;;20750;6718;276069;-75
2023/03/29 07:14:27;;;;;;;1.63;1.53;;;13.20;39.40;;;;;;20884;6721;148244;-76
2023/03/29 07:16:59;;;;;;;1.43;1.33;;;13.00;40.00;;;;;;20951;6718;117327;-73
2023/03/29 07:19:34;;;;;;;2.45;1.60;;;12.70;40.70;;;;;;20734;6718;296423;-73
2023/03/29 07:22:11;;;;;;;1.17;1.10;;;12.80;40.30;;;;;;20903;6733;116695;-74
2023/03/29 07:24:48;;;;;;;3.00;1.60;;;12.80;40.70;;;;;;20623;6718;307382;-74
2023/03/29 07:27:23;;;;;;;3.90;1.60;;;12.90;40.20;;;;;;20741;6709;304526;-74
2023/03/29 07:29:59;;;;;;;1.90;1.50;;;13.30;40.10;;;;;;20656;6739;311213;-74
2023/03/29 07:32:35;;;;;;;2.13;1.80;;;13.60;39.50;;;;;;20880;6746;117588;-73
2023/03/29 07:35:10;;;;;;;2.40;1.30;;;13.50;40.10;;;;;;20799;6739;118089;-75
2023/03/29 07:37:46;;;;;;;1.65;1.40;;;13.20;40.70;;;;;;20658;6727;311817;-72
2023/03/29 07:40:24;;;;;;;1.53;1.43;;;13.30;40.20;;;;;;20830;6769;120075;-72
2023/03/29 07:43:00;;;;;;;1.60;1.50;;;13.30;40.70;;;;;;20909;6737;121255;-73
2023/03/29 07:45:35;;;;;;;4.30;1.50;;;13.10;41.20;;;;;;20559;6726;308501;-72
2023/03/29 07:48:11;;;;;;;1.70;1.53;;;13.20;40.40;;;;;;20726;6718;305023;-74
2023/03/29 07:50:50;;;;;;;2.20;1.40;;;13.60;39.30;;;;;;20755;6706;309069;-75
2023/03/29 07:53:28;;;;;;;3.93;1.40;;;13.90;38.80;;;;;;20961;6715;118724;-73
2023/03/29 07:56:00;;;;;;;1.33;1.23;;;13.80;39.40;;;;;;20844;6697;117663;-74
2023/03/29 07:58:36;;;;;;;1.10;1.10;;;13.50;40.10;;;;;;20882;6736;122627;-77
2023/03/29 08:01:14;;;;;;;2.97;1.50;;;13.30;40.80;;;;;;20698;6732;335662;-77
2023/03/29 08:03:47;;;;;;;1.70;1.60;;;13.40;39.00;;;;;;20677;6727;304837;-77
2023/03/29 08:06:25;;;;;;;3.40;1.80;;;13.70;38.70;;;;;;21014;6682;116763;-76
2023/03/29 08:09:00;;;;;;;2.40;1.90;;;13.70;39.40;;;;;;21015;6697;117327;-76
2023/03/29 08:11:38;;;;;;;3.00;2.80;;;13.50;40.10;;;;;;20981;6712;116703;-72
2023/03/29 08:14:11;;;;;;;5.30;5.00;;;13.30;40.60;;;;;;20940;6712;117227;-77
2023/03/29 08:16:46;;;;;;;10.83;9.97;;;13.10;41.00;;;;;;20974;6703;116507;-76
2023/03/29 08:19:22;;;;;;;2.30;2.20;;;13.00;41.30;;;;;;20995;6703;117118;-76
2023/03/29 08:21:57;;;;;;;9.57;8.77;;;12.90;41.50;;;;;;20781;6703;308192;-76
2023/03/29 08:24:33;;;;;;;2.10;1.90;;;13.20;40.70;;;;;;20902;6727;140538;-75
2023/03/29 08:27:09;;;;;;;3.33;3.12;;;13.30;41.00;;;;;;20767;6716;276107;-78
2023/03/29 08:29:47;;;;;;;1.93;1.73;;;13.50;40.00;;;;;;20958;6722;116964;-78
2023/03/29 08:32:23;;;;;;;4.18;2.20;;;13.50;40.50;;;;;;20783;6707;274826;-78
2023/03/29 08:35:02;;;;;;;2.00;1.67;;;13.70;41.60;;;;;;20910;6704;117754;-78
2023/03/29 08:37:35;;;;;;;3.80;2.33;;;13.70;41.70;;;;;;20983;6716;116754;-79
2023/03/29 08:40:20;;;;;;;2.92;2.20;;;13.60;41.40;;;;;;20694;6716;335267;-77
2023/03/29 08:43:25;;;;;;;2.27;2.10;;;13.60;41.00;;;;;;20722;6719;304947;-76
2023/03/29 08:46:10;;;;;;;2.43;1.97;;;13.90;39.90;;;;;;20755;6725;117748;-78
2023/03/29 08:48:52;;;;;;;2.50;2.00;;;13.80;40.60;;;;;;20913;6724;117481;-76
2023/03/29 08:51:41;;;;;;;3.17;1.70;;;13.50;41.30;;;;;;20930;6724;117405;-76
2023/03/29 08:54:19;;;;;;;1.80;1.70;;;13.30;41.90;;;;;;20786;6779;117480;-76
2023/03/29 08:56:56;;;;;;;2.83;2.43;;;13.20;42.10;;;;;;20890;6739;117149;-75
2023/03/29 08:59:33;;;;;;;3.67;2.20;;;13.00;42.30;;;;;;20874;6743;117297;-76
2023/03/29 09:02:15;;;;;;;2.33;2.13;;;13.00;42.60;;;;;;20928;6776;116693;-76
2023/03/29 09:04:48;;;;;;;2.90;2.70;;;12.90;42.60;;;;;;20672;6593;317995;-96
2023/03/29 09:07:24;;;;;;;2.23;1.90;;;13.20;41.50;;;;;;20986;6704;116950;-73
2023/03/29 09:09:59;;;;;;;3.15;2.75;;;13.30;41.60;;;;;;20729;6717;302477;-73
2023/03/29 09:12:45;;;;;;;3.20;2.70;;;13.60;40.60;;;;;;20692;6717;304620;-72
2023/03/29 09:15:18;;;;;;;2.50;2.20;;;14.00;41.00;;;;;;20826;6712;117158;-73
2023/03/29 09:17:59;;;;;;;3.30;2.47;;;14.00;41.30;;;;;;20964;6712;117245;-72
2023/03/29 09:20:51;;;;;;;2.03;1.93;;;13.80;41.70;;;;;;20932;6712;117625;-71
2023/03/29 09:23:42;;;;;;;3.83;3.27;;;13.60;42.00;;;;;;20860;6727;274139;-71
2023/03/29 09:26:29;;;;;;;11.03;9.90;;;13.50;41.90;;;;;;20923;6726;117283;-73
2023/03/29 09:29:25;;;;;;;3.80;3.50;;;13.50;42.10;;;;;;20728;6719;296338;-71
2023/03/29 09:32:01;;;;;;;2.10;2.00;;;13.80;40.00;;;;;;20940;6719;116739;-71
2023/03/29 09:34:42;;;;;;;5.03;2.20;;;13.90;40.50;;;;;;20837;6712;117673;-71
2023/03/29 09:37:23;;;;;;;2.40;2.27;;;13.90;40.90;;;;;;20893;6735;117074;-76
2023/03/29 09:39:58;;;;;;;6.47;2.20;;;13.90;41.30;;;;;;20966;6713;116662;-70
2023/03/29 09:42:33;;;;;;;4.47;2.20;;;14.00;41.70;;;;;;20866;6735;117858;-71
2023/03/29 09:45:09;;;;;;;3.83;2.17;;;14.10;41.80;;;;;;20705;6756;117277;-71
2023/03/29 09:47:51;;;;;;;2.50;2.30;;;14.20;41.40;;;;;;20728;6718;304669;-71
2023/03/29 09:50:34;;;;;;;3.23;2.00;;;14.60;38.50;;;;;;20874;6733;118474;-71
2023/03/29 09:53:10;;;;;;;3.17;2.42;;;14.60;38.50;;;;;;20669;6737;305306;-72
2023/03/29 09:55:46;;;;;;;3.37;2.17;;;14.90;37.80;;;;;;20503;6733;307850;-73
2023/03/29 09:58:22;;;;;;;3.80;2.20;;;15.40;37.90;;;;;;20842;6750;117081;-73
2023/03/29 10:00:57;;;;;;;4.70;2.30;;;15.50;38.40;;;;;;20849;6748;117068;-71
2023/03/29 10:03:34;;;;;;;2.37;2.20;;;15.40;39.10;;;;;;20826;6750;116868;-74
2023/03/29 10:06:10;;;;;;;2.93;2.73;;;15.30;39.40;;;;;;20951;6719;116743;-72
2023/03/29 10:08:46;;;;;;;1.83;1.73;;;15.20;39.90;;;;;;20946;6710;118615;-74
2023/03/29 10:11:22;;;;;;;3.67;2.30;;;15.30;40.20;;;;;;20896;6734;118823;-71
2023/03/29 10:14:03;;;;;;;3.23;2.57;;;15.30;39.90;;;;;;20839;6735;118229;-71
2023/03/29 10:16:38;;;;;;;2.67;2.50;;;15.40;40.00;;;;;;20892;6734;119524;-70
2023/03/29 10:19:33;;;;;;;1.80;1.70;;;15.50;40.30;;;;;;20923;6731;117032;-72
2023/03/29 10:22:12;;;;;;;2.27;2.07;;;15.70;40.30;;;;;;20075;6780;312940;-80
2023/03/29 10:24:50;;;;;;;1.80;1.70;;;16.60;38.10;;;;;;20822;6719;117195;-78
2023/03/29 10:27:25;;;;;;;5.07;2.30;;;16.50;37.30;;;;;;20988;6703;117072;-73
2023/03/29 10:30:02;;;;;;;3.13;1.77;;;16.70;38.00;;;;;;20923;6724;117641;-73
2023/03/29 10:32:37;;;;;;;2.65;1.92;;;16.80;38.10;;;;;;20697;6718;275286;-74
2023/03/29 10:35:22;;;;;;;2.50;1.80;;;17.80;34.00;;;;;;20575;6719;306958;-78
2023/03/29 10:37:59;;;;;;;2.37;1.73;;;18.10;35.10;;;;;;20931;6723;117253;-73
2023/03/29 10:40:34;;;;;;;2.80;1.83;;;18.00;35.00;;;;;;20688;6719;305295;-74
2023/03/29 10:43:13;;;;;;;2.33;1.77;;;18.30;33.80;;;;;;20940;6719;116857;-72
2023/03/29 10:45:49;;;;;;;1.70;1.60;;;18.70;33.20;;;;;;20509;6790;337001;-72
2023/03/29 10:48:28;;;;;;;2.25;1.90;;;18.70;32.50;;;;;;20679;6735;334075;-74
2023/03/29 10:51:07;;;;;;;1.50;1.40;;;19.10;32.20;;;;;;20907;6730;117030;-74
2023/03/29 10:53:44;;;;;;;3.50;1.50;;;19.10;32.70;;;;;;20898;6724;116795;-70
2023/03/29 10:56:39;;;;;;;3.42;1.58;;;19.10;32.30;;;;;;20761;6712;303508;-75
2023/03/29 10:59:28;;;;;;;1.50;1.40;;;19.10;32.30;;;;;;20970;6712;120601;-72
2023/03/29 11:02:14;;;;;;;1.60;1.50;;;19.10;33.50;;;;;;20768;6712;281323;-73
2023/03/29 11:04:59;;;;;;;1.83;1.70;;;19.30;31.70;;;;;;20688;6697;306391;-72
2023/03/29 11:07:55;;;;;;;1.67;1.40;;;19.70;29.90;;;;;;20809;6697;275354;-73
2023/03/29 11:10:41;;;;;;;3.30;2.50;;;19.70;30.00;;;;;;20984;6697;117169;-73
2023/03/29 11:13:20;;;;;;;2.83;1.50;;;19.20;31.50;;;;;;20999;6697;117042;-72
2023/03/29 11:16:16;;;;;;;1.10;1.10;;;19.00;32.70;;;;;;20896;6752;116833;-73
2023/03/29 11:18:55;;;;;;;1.53;1.40;;;19.00;32.70;;;;;;20771;6696;279804;-72
2023/03/29 11:22:00;;;;;;;1.23;1.13;;;19.20;30.80;;;;;;21051;6681;116540;-70
2023/03/29 11:24:49;;;;;;;1.60;1.50;;;19.30;31.40;;;;;;20948;6682;119950;-70
2023/03/29 11:27:41;;;;;;;1.33;1.23;;;19.00;31.30;;;;;;21004;6697;116748;-72
2023/03/29 11:30:21;;;;;;;1.27;1.17;;;18.60;31.80;;;;;;20905;6729;119669;-72
2023/03/29 11:33:00;;;;;;;0.93;0.93;;;18.60;31.70;;;;;;20939;6715;116670;-72
2023/03/29 11:35:55;;;;;;;1.10;1.00;;;18.40;32.00;;;;;;20789;6709;117495;-74
2023/03/29 11:38:34;;;;;;;1.10;1.10;;;18.20;32.00;;;;;;20950;6712;148086;-69
2023/03/29 11:41:26;;;;;;;1.77;1.10;;;18.10;32.20;;;;;;20798;6697;274565;-69
2023/03/29 11:44:05;;;;;;;2.97;1.20;;;18.20;30.00;;;;;;20677;6716;336843;-70
2023/03/29 11:46:41;;;;;;;1.80;1.13;;;18.60;29.40;;;;;;20532;6805;119716;-70
2023/03/29 11:49:20;;;;;;;2.60;1.40;;;18.60;30.40;;;;;;20656;6728;304720;-70
2023/03/29 11:51:55;;;;;;;2.10;1.30;;;18.60;29.30;;;;;;20646;6729;283856;-70
2023/03/29 11:54:47;;;;;;;2.07;1.50;;;18.80;29.30;;;;;;20608;6728;309850;-70
2023/03/29 11:57:23;;;;;;;1.47;1.10;;;18.90;29.10;;;;;;19665;7066;329863;-71
2023/03/29 11:59:58;;;;;;;1.27;1.10;;;19.20;29.00;;;;;;20587;6782;117365;-70
2023/03/29 12:02:47;;;;;;;1.30;1.20;;;19.00;29.80;;;;;;20746;6709;290036;-71
2023/03/29 12:05:36;;;;;;;1.63;1.00;;;19.00;29.30;;;;;;20869;6695;117112;-72
2023/03/29 12:08:25;;;;;;;1.80;1.33;;;18.90;30.10;;;;;;20988;6709;116759;-71
2023/03/29 12:11:23;;;;;;;1.30;1.20;;;18.60;30.60;;;;;;20766;6709;340295;-72
2023/03/29 12:13:59;;;;;;;1.13;1.03;;;18.60;29.30;;;;;;20860;6717;120690;-72
2023/03/29 12:16:34;;;;;;;1.50;1.40;;;18.50;29.80;;;;;;20627;6731;305547;-72
2023/03/29 12:19:17;;;;;;;1.60;0.93;;;18.50;29.30;;;;;;20877;6727;122646;-71
2023/03/29 12:21:53;;;;;;;1.43;1.07;;;18.10;30.80;;;;;;20908;6726;117962;-72
2023/03/29 12:24:29;;;;;;;2.20;1.40;;;18.10;30.80;;;;;;20585;6729;307907;-70
2023/03/29 12:27:20;;;;;;;1.27;1.17;;;18.30;30.20;;;;;;20702;6730;275695;-71
2023/03/29 12:29:58;;;;;;;1.50;1.10;;;18.60;29.40;;;;;;20958;6714;116565;-71
2023/03/29 12:33:10;;;;;;;1.50;1.40;;;18.50;30.20;;;;;;20718;6715;304554;-70
2023/03/29 12:36:06;;;;;;;1.30;1.20;;;18.50;29.80;;;;;;20784;6711;117024;-70
2023/03/29 12:38:41;;;;;;;1.30;1.20;;;18.40;30.80;;;;;;20953;6709;117418;-71
2023/03/29 12:41:17;;;;;;;1.47;1.10;;;18.10;31.40;;;;;;21006;6698;117435;-71
2023/03/29 12:43:53;;;;;;;1.10;1.10;;;17.90;31.60;;;;;;20935;6707;116602;-71
2023/03/29 12:46:32;;;;;;;1.63;1.20;;;17.70;32.30;;;;;;20724;6714;302597;-71
2023/03/29 12:49:08;;;;;;;1.20;1.10;;;17.90;33.70;;;;;;21007;6712;116976;-70
2023/03/29 12:51:44;;;;;;;2.07;1.13;;;17.80;33.60;;;;;;20976;6712;116859;-70
2023/03/29 12:54:19;;;;;;;1.40;1.00;;;17.60;34.40;;;;;;20897;6712;116825;-71
2023/03/29 12:56:59;;;;;;;1.53;1.10;;;17.50;35.80;;;;;;20837;6682;274600;-70
2023/03/29 12:59:37;;;;;;;1.87;1.13;;;17.70;37.50;;;;;;20766;6709;275147;-71
2023/03/29 13:02:12;;;;;;;3.47;1.10;;;18.20;36.40;;;;;;21025;6697;116724;-72
2023/03/29 13:04:51;;;;;;;1.23;1.13;;;18.50;35.80;;;;;;20835;6694;119154;-72
2023/03/29 13:07:31;;;;;;;1.90;1.27;;;18.60;35.90;;;;;;20993;6697;116714;-73
2023/03/29 13:10:07;;;;;;;1.55;1.27;;;18.60;35.30;;;;;;20845;6682;303836;-72
2023/03/29 13:12:45;;;;;;;2.20;1.27;;;19.10;31.90;;;;;;21013;6738;117348;-72